EDDSLPFR

Guest
Details From EDDS - Stuttgart
To LPFR - Faro
Flight Number -
Tags Generated
Created
Modified
Stats Distance 1,027 nm / 1,903 km
Max Altitude 0 ft / 0 m
Waypoints 6
Social Downloads 4
Likes 0
Share VATSIM

Download

Looking for another format? Having issues loading an existing format? Contact us
Advertisement - Login to hide

Notes

Generated

Route

EDDS BUSIL BAKRO NATPA VFA LPFR

ID Type Via Altitude Latitude Longitude Leg Dist Tot Dist Heading (true) Name
O EDDS APT - 0 ft / 0 m 48.68573˚ 9.20013˚ - 0 nm - -
BUSIL FIX - 0 ft / 0 m 46.29361˚ 4.72194˚ 231 nm 231 nm 233° / 230° -
BAKRO FIX - 0 ft / 0 m 43.23000˚ -0.13361˚ 276 nm 508 nm 230° / 227° -
NATPA FIX - 0 ft / 0 m 39.91889˚ -4.58639˚ 281 nm 790 nm 227° / 224° -
VFA VOR - 0 ft / 0 m 37.01352˚ -7.97501˚ 236 nm 1026 nm 223° / 221° FARO VOR-DME
O LPFR APT - 0 ft / 0 m 37.01729˚ -7.98609˚ 0 nm 1027 nm 293° / 293° -

Altitude Profile

Advertisement - Login to hide

Weather


0- 5 10 15 20 25 30 35+ Temperature / ° C

Clouds and Precipitation
Forecast for 2017-12-15 12:00 UTC. Updated an hour ago

Ground ~20,000 ft ~40,000 ft Winds

EDDS

Details ICAO EDDS (STR)
Name Stuttgart
Region Germany - Civil
Timezone Europe/Berlin (UTC+1.0)
Stats Elevation 1,273 ft / 388 m (AMSL)
Location 48.689876° 9.221962°
Runways 1
Magnetic Variation 2.523° E

METAR

EDDS 151220Z 24016KT 190V280 9999 FEW028 BKN035 06/M00 Q0997 NOSIG

Decode

TAF

TAF TAF EDDS 151100Z 1512/1612 20007KT 9999 BKN025 TEMPO 1512/1514 22015G25KT PROB30 TEMPO 1512/1518 SHRASN BKN014CB BECMG 1600/1604 26005KT TEMPO 1600/1612 2000 SHSN BKN005CB

Decode

Departure Runways

ID Width Length Bearing (true) Bearing (mag) Surface Threshold Offset Overrun Length
07 148 ft / 45 m 10,950 ft / 3,337 m 73.96° 71.44° Concrete 981 ft / 299 m 157 ft / 48 m
25 148 ft / 45 m 10,950 ft / 3,337 m 253.99° 251.47° Concrete 0 ft / 0 m 157 ft / 48 m

LPFR

Details ICAO LPFR (FAO)
Name Faro
Region Portugal
Timezone Europe/Lisbon (UTC+0.0)
Stats Elevation 24 ft / 7 m (AMSL)
Location 37.015336° -7.972327°
Runways 1
Magnetic Variation 1.936° W

METAR

LPFR 151200Z 26010KT 9999 FEW007 BKN022 18/16 Q1018

Decode

TAF

TAF LPFR 151110Z 1512/1612 27013KT 9999 SCT012 SCT030 TEMPO 1512/1518 SCT008 BKN012 PROB40 TEMPO 1512/1518 3000 DZRA BR SCT004 BKN008 BECMG 1516/1518 32010KT BECMG 1521/1524 CAVOK BECMG 1609/1611 06010KT

Decode

Destination Runways

ID Width Length Bearing (true) Bearing (mag) Surface Threshold Offset Overrun Length
10 148 ft / 45 m 8,148 ft / 2,484 m 100.08° 102.02° Asphalt 148 ft / 45 m 0 ft / 0 m
28 148 ft / 45 m 8,148 ft / 2,484 m 280.10° 282.04° Asphalt 148 ft / 45 m 0 ft / 0 m

Approach Navaids

Runway Type Ident Frequency Range Bearing (true) Bearing (mag) Slope Elevation
28 Localiser IIF 109.50 MHz 18 nm / 33 km 280.16° 282.10° - 24 ft / 7 m (AMSL)
28 Glidescope IIF 109.50 MHz 10 nm / 19 km 280.09° 282.02° 3.00° 24 ft / 7 m (AMSL)
28 DME IIF 109.50 MHz 18 nm / 33 km - - - 24 ft / 7 m (AMSL)

Popular Alternatives